createdAt,value
2023-03-21T00:01:55.287Z,8.11
2023-03-21T00:04:28.349Z,8.12
2023-03-21T00:06:58.546Z,8.11
2023-03-21T00:09:26.234Z,8.12
2023-03-21T00:11:53.674Z,8.14
2023-03-21T00:14:21.124Z,8.13
2023-03-21T00:16:52.204Z,8.14
2023-03-21T00:19:25.163Z,8.15
2023-03-21T00:22:07.123Z,8.16
2023-03-21T00:24:36.050Z,8.17
2023-03-21T00:27:29.750Z,8.17
2023-03-21T00:29:51.021Z,8.18
2023-03-21T00:32:22.201Z,8.19
2023-03-21T00:35:40.733Z,8.17
2023-03-21T00:37:37.590Z,8.18
2023-03-21T00:40:16.302Z,8.19
2023-03-21T00:42:47.167Z,8.19
2023-03-21T00:45:15.602Z,8.20
2023-03-21T00:47:43.778Z,8.18
2023-03-21T00:50:12.789Z,8.20
2023-03-21T00:52:41.325Z,8.19
2023-03-21T00:55:17.035Z,8.20
2023-03-21T00:57:47.460Z,8.20
2023-03-21T01:00:20.450Z,8.20
2023-03-21T01:03:04.275Z,8.20
2023-03-21T01:06:12.615Z,8.21
2023-03-21T01:08:56.519Z,8.22
2023-03-21T01:11:26.976Z,8.21
2023-03-21T01:14:04.189Z,8.22
2023-03-21T01:16:38.436Z,8.22
2023-03-21T01:19:14.868Z,8.22
2023-03-21T01:21:49.832Z,8.20
2023-03-21T01:24:17.162Z,8.20
2023-03-21T01:26:44.412Z,8.22
2023-03-21T01:29:12.007Z,8.22
2023-03-21T01:31:39.579Z,8.23
2023-03-21T01:34:08.036Z,8.22
2023-03-21T01:36:35.422Z,8.23
2023-03-21T01:39:06.803Z,8.23
2023-03-21T01:41:43.284Z,8.22
2023-03-21T01:44:26.326Z,8.22
2023-03-21T01:47:09.628Z,8.23
2023-03-21T01:49:47.910Z,8.24
2023-03-21T01:52:39.542Z,8.24
2023-03-21T01:55:18.627Z,8.22
2023-03-21T01:58:07.127Z,8.22
2023-03-21T02:00:55.330Z,8.21
2023-03-21T02:03:50.692Z,8.22
2023-03-21T02:06:51.667Z,8.20
2023-03-21T02:09:38.159Z,8.20
2023-03-21T02:12:12.995Z,8.20
2023-03-21T02:14:40.708Z,8.22
2023-03-21T02:17:59.581Z,8.20
2023-03-21T02:21:07.973Z,8.21
2023-03-21T02:23:53.690Z,8.22
2023-03-21T02:26:52.456Z,8.21
2023-03-21T02:29:42.547Z,8.21
2023-03-21T02:32:57.984Z,8.21
2023-03-21T02:36:14.057Z,8.22
2023-03-21T02:38:59.955Z,8.22
2023-03-21T02:41:54.851Z,8.22
2023-03-21T02:44:35.111Z,8.22
2023-03-21T02:47:08.172Z,8.22
2023-03-21T02:49:47.322Z,8.21
2023-03-21T02:52:35.478Z,8.23
2023-03-21T02:55:07.936Z,8.24
2023-03-21T02:57:50.322Z,8.24
2023-03-21T03:00:21.676Z,8.25
2023-03-21T03:02:54.618Z,8.25
2023-03-21T03:05:30.306Z,8.25
2023-03-21T03:08:07.044Z,8.25
2023-03-21T03:10:52.992Z,8.27
2023-03-21T03:13:38.495Z,8.26
2023-03-21T03:16:26.134Z,8.27
2023-03-21T03:18:55.980Z,8.26
2023-03-21T03:21:37.951Z,8.27
2023-03-21T03:24:09.948Z,8.28
2023-03-21T03:26:47.608Z,8.29
2023-03-21T03:29:18.922Z,8.29
2023-03-21T03:31:51.150Z,8.29
2023-03-21T03:34:27.710Z,8.30
2023-03-21T03:36:57.723Z,8.29
2023-03-21T03:39:32.106Z,8.30
2023-03-21T03:42:27.171Z,8.30
2023-03-21T03:45:02.029Z,8.30
2023-03-21T03:47:56.085Z,8.30
2023-03-21T03:50:30.988Z,8.30
2023-03-21T03:53:18.171Z,8.31
2023-03-21T03:55:49.319Z,8.31
2023-03-21T03:58:23.799Z,8.31
2023-03-21T04:00:55.325Z,8.32
2023-03-21T04:03:23.073Z,8.33
2023-03-21T04:05:50.875Z,8.33
2023-03-21T04:08:18.844Z,8.33
2023-03-21T04:10:52.034Z,8.34
2023-03-21T04:13:19.834Z,8.33
2023-03-21T04:16:09.757Z,8.32
2023-03-21T04:18:39.309Z,8.33
2023-03-21T04:21:13.245Z,8.34
2023-03-21T04:23:42.001Z,8.33
2023-03-21T04:26:09.397Z,8.35
2023-03-21T04:28:41.760Z,8.35
2023-03-21T04:31:41.505Z,8.35
2023-03-21T04:34:12.491Z,8.36
2023-03-21T04:36:50.947Z,8.36
2023-03-21T04:39:18.411Z,8.36
2023-03-21T04:41:49.715Z,8.37
2023-03-21T04:44:18.301Z,8.37
2023-03-21T04:46:50.379Z,8.36
2023-03-21T04:49:18.960Z,8.38
2023-03-21T04:51:46.377Z,8.38
2023-03-21T04:54:19.318Z,8.37
2023-03-21T04:56:46.841Z,8.37
2023-03-21T04:59:17.864Z,8.37
2023-03-21T05:01:45.973Z,8.38
2023-03-21T05:04:14.710Z,8.37
2023-03-21T05:06:45.352Z,8.37
2023-03-21T05:09:13.570Z,8.37
2023-03-21T05:11:41.303Z,8.37
2023-03-21T05:14:14.623Z,8.37
2023-03-21T05:16:45.110Z,8.37
2023-03-21T05:19:14.034Z,8.38
2023-03-21T05:21:43.514Z,8.38
2023-03-21T05:24:20.577Z,8.38
2023-03-21T05:26:52.493Z,8.38
2023-03-21T05:29:23.488Z,8.37
2023-03-21T05:32:00.727Z,8.38
2023-03-21T05:34:28.787Z,8.38
2023-03-21T05:36:56.327Z,8.39
2023-03-21T05:39:26.644Z,8.38
2023-03-21T05:42:03.089Z,8.38
2023-03-21T05:44:31.697Z,8.39
2023-03-21T05:47:03.414Z,8.40
2023-03-21T05:49:38.248Z,8.40
2023-03-21T05:52:06.510Z,8.40
2023-03-21T05:54:34.075Z,8.41
2023-03-21T05:57:03.209Z,8.42
2023-03-21T05:59:49.808Z,8.43
2023-03-21T06:02:18.754Z,8.44
2023-03-21T06:04:47.340Z,8.44
2023-03-21T06:07:14.546Z,8.45
2023-03-21T06:09:42.677Z,8.46
2023-03-21T06:12:10.069Z,8.47
2023-03-21T06:15:06.168Z,8.46
2023-03-21T06:17:44.618Z,8.50
2023-03-21T06:20:14.397Z,8.49
2023-03-21T06:22:47.972Z,8.50
2023-03-21T06:25:15.536Z,8.50
2023-03-21T06:27:43.928Z,8.52
2023-03-21T06:30:11.822Z,8.53
2023-03-21T06:32:46.861Z,8.52
2023-03-21T06:35:18.770Z,8.53
2023-03-21T06:37:49.305Z,8.54
2023-03-21T06:40:17.695Z,8.55
2023-03-21T06:42:45.939Z,8.55
2023-03-21T06:45:14.199Z,8.57
2023-03-21T06:47:42.927Z,8.56
2023-03-21T06:50:19.579Z,8.56
2023-03-21T06:52:47.068Z,8.59
2023-03-21T06:55:15.560Z,8.59
2023-03-21T06:57:43.135Z,8.60
2023-03-21T07:00:11.603Z,8.61
2023-03-21T07:02:45.000Z,8.61
2023-03-21T07:05:17.221Z,8.64
2023-03-21T07:07:45.205Z,8.65
2023-03-21T07:10:12.846Z,8.65
2023-03-21T07:12:59.104Z,8.67
2023-03-21T07:15:53.661Z,8.68
2023-03-21T07:18:21.373Z,8.68
2023-03-21T07:20:52.391Z,8.69
2023-03-21T07:23:22.867Z,8.70
2023-03-21T07:25:51.312Z,8.71
2023-03-21T07:28:19.236Z,8.71
2023-03-21T07:30:53.618Z,8.73
2023-03-21T07:33:21.492Z,8.75
2023-03-21T07:35:51.262Z,8.77
2023-03-21T07:38:19.843Z,8.80
2023-03-21T07:40:48.509Z,8.82
2023-03-21T07:45:56.931Z,8.84
2023-03-21T07:48:24.528Z,8.87
2023-03-21T07:50:52.164Z,8.88
2023-03-21T07:53:19.649Z,8.89
2023-03-21T07:55:53.138Z,8.91
2023-03-21T07:58:20.941Z,8.94
2023-03-21T08:00:48.936Z,8.94
2023-03-21T08:03:16.482Z,8.96
2023-03-21T08:05:44.938Z,8.99
2023-03-21T08:08:12.635Z,9.00
2023-03-21T08:10:41.981Z,9.01
2023-03-21T08:13:09.230Z,9.02
2023-03-21T08:15:38.048Z,9.05
2023-03-21T08:18:05.716Z,9.06
2023-03-21T08:20:33.006Z,9.10
2023-03-21T08:23:00.366Z,9.10
2023-03-21T08:25:28.369Z,9.10
2023-03-21T08:27:55.823Z,9.08
2023-03-21T08:30:26.007Z,9.10
2023-03-21T08:33:00.680Z,9.10
2023-03-21T08:35:30.792Z,9.09
2023-03-21T08:37:58.068Z,9.14
2023-03-21T08:40:26.175Z,9.15
2023-03-21T08:42:53.544Z,9.15
2023-03-21T08:45:21.170Z,9.14
2023-03-21T08:47:48.504Z,9.13
2023-03-21T08:50:19.026Z,9.15
2023-03-21T08:52:46.617Z,9.15
2023-03-21T08:55:15.758Z,9.16
2023-03-21T08:57:44.188Z,9.17
2023-03-21T09:00:17.272Z,9.18
2023-03-21T09:02:46.971Z,9.22
2023-03-21T09:05:16.782Z,9.24
2023-03-21T09:07:45.073Z,9.24
2023-03-21T09:10:20.613Z,9.26
2023-03-21T09:12:50.842Z,9.27
2023-03-21T09:15:20.485Z,9.28
2023-03-21T09:17:50.357Z,9.29
2023-03-21T09:20:21.258Z,9.28
2023-03-21T09:22:50.310Z,9.28
2023-03-21T09:25:19.442Z,9.29
2023-03-21T09:27:48.012Z,9.31
2023-03-21T09:30:17.106Z,9.32
2023-03-21T09:32:49.999Z,9.30
2023-03-21T09:35:18.958Z,9.30
2023-03-21T09:37:48.209Z,9.31
2023-03-21T09:40:52.693Z,9.31
2023-03-21T09:43:59.105Z,9.33
2023-03-21T09:46:45.379Z,9.32
2023-03-21T09:49:25.738Z,9.32
2023-03-21T09:51:56.606Z,9.31
2023-03-21T09:54:33.344Z,9.31
2023-03-21T09:57:07.928Z,9.31
2023-03-21T09:59:40.364Z,9.30
2023-03-21T10:02:19.745Z,9.30
2023-03-21T10:04:47.101Z,9.30
2023-03-21T10:07:18.168Z,9.30
2023-03-21T10:09:47.777Z,9.31
2023-03-21T10:12:21.905Z,9.31
2023-03-21T10:14:54.154Z,9.33
2023-03-21T10:17:34.035Z,9.41
2023-03-21T10:20:12.312Z,9.42
2023-03-21T10:22:39.740Z,9.45
2023-03-21T10:25:11.362Z,9.49
2023-03-21T10:27:39.014Z,9.48
2023-03-21T10:30:08.411Z,9.47
2023-03-21T10:32:35.977Z,9.47
2023-03-21T10:35:05.147Z,9.45
2023-03-21T10:37:32.883Z,9.43
2023-03-21T10:40:00.400Z,9.40
2023-03-21T10:42:31.446Z,9.40
2023-03-21T10:44:59.016Z,9.38
2023-03-21T10:47:36.345Z,9.35
2023-03-21T10:50:12.491Z,9.34
2023-03-21T10:53:00.395Z,9.33
2023-03-21T10:55:34.394Z,9.30
2023-03-21T10:58:29.671Z,9.29
2023-03-21T11:01:03.207Z,9.29
2023-03-21T11:03:43.625Z,9.32
2023-03-21T11:06:27.265Z,9.32
2023-03-21T11:08:58.895Z,9.32
2023-03-21T11:11:27.642Z,9.30
2023-03-21T11:14:04.257Z,9.31
2023-03-21T11:16:43.773Z,9.35
2023-03-21T11:19:18.160Z,9.40
2023-03-21T11:21:45.844Z,9.46
2023-03-21T11:24:17.564Z,9.49
2023-03-21T11:26:48.225Z,9.51
2023-03-21T11:29:26.214Z,9.55
2023-03-21T11:31:53.708Z,9.58
2023-03-21T11:34:29.758Z,9.65
2023-03-21T11:37:04.248Z,9.70
2023-03-21T11:39:37.388Z,9.74
2023-03-21T11:42:04.807Z,9.81
2023-03-21T11:44:35.431Z,9.84
2023-03-21T11:47:04.059Z,9.86
2023-03-21T11:49:31.561Z,9.87
2023-03-21T11:52:21.027Z,9.89
2023-03-21T11:55:04.068Z,9.93
2023-03-21T11:57:44.669Z,9.98
2023-03-21T12:00:22.833Z,10.03
2023-03-21T12:03:07.965Z,10.12
2023-03-21T12:05:39.223Z,10.17
2023-03-21T12:08:12.832Z,10.24
2023-03-21T12:10:53.745Z,10.32
2023-03-21T12:13:41.481Z,10.45
2023-03-21T12:16:43.777Z,10.53
2023-03-21T12:19:32.367Z,10.58
2023-03-21T12:22:27.605Z,10.63
2023-03-21T12:24:57.037Z,10.68
2023-03-21T12:27:42.352Z,10.72
2023-03-21T12:30:31.312Z,10.76
2023-03-21T12:33:13.648Z,10.76
2023-03-21T12:35:48.469Z,10.78
2023-03-21T12:38:23.753Z,10.79
2023-03-21T12:41:12.779Z,10.80
2023-03-21T12:43:49.104Z,10.81
2023-03-21T12:46:30.634Z,10.83
2023-03-21T12:49:18.238Z,10.86
2023-03-21T12:51:50.566Z,10.87
2023-03-21T12:54:30.553Z,10.87
2023-03-21T12:57:04.648Z,10.86
2023-03-21T12:59:37.770Z,10.81
2023-03-21T13:02:30.722Z,10.73
2023-03-21T13:05:20.422Z,10.68
2023-03-21T13:07:52.926Z,10.65
2023-03-21T13:10:21.642Z,10.64
2023-03-21T13:12:57.862Z,10.63
2023-03-21T13:15:28.325Z,10.64
2023-03-21T13:18:16.288Z,10.61
2023-03-21T13:20:53.025Z,10.61
2023-03-21T13:23:25.451Z,10.62
2023-03-21T13:25:55.794Z,10.66
2023-03-21T13:28:30.369Z,10.67
2023-03-21T13:31:50.956Z,10.67
2023-03-21T13:34:22.615Z,10.69
2023-03-21T13:36:51.175Z,10.70
2023-03-21T13:39:27.933Z,10.70
2023-03-21T13:42:03.703Z,10.70
2023-03-21T13:44:50.531Z,10.75
2023-03-21T13:47:55.739Z,10.82
2023-03-21T13:50:24.801Z,10.89
2023-03-21T13:53:23.660Z,10.96
2023-03-21T13:56:22.131Z,11.02
2023-03-21T13:58:50.527Z,11.04
2023-03-21T14:01:34.821Z,11.04
2023-03-21T14:04:05.206Z,11.06
2023-03-21T14:06:47.596Z,11.04
2023-03-21T14:09:31.784Z,11.03
2023-03-21T14:12:07.334Z,11.01
2023-03-21T14:14:41.968Z,11.04
2023-03-21T14:17:23.101Z,11.07
2023-03-21T14:20:03.595Z,11.08
2023-03-21T14:22:31.041Z,11.11
2023-03-21T14:25:03.117Z,11.12
2023-03-21T14:27:37.783Z,11.12
2023-03-21T14:30:06.111Z,11.15
2023-03-21T14:32:35.460Z,11.17
2023-03-21T14:35:04.463Z,11.21
2023-03-21T14:37:38.917Z,11.25
2023-03-21T14:40:26.696Z,11.31
2023-03-21T14:42:55.040Z,11.36
2023-03-21T14:45:28.288Z,11.43
2023-03-21T14:48:08.913Z,11.48
2023-03-21T14:50:57.517Z,11.56
2023-03-21T14:53:36.190Z,11.59
2023-03-21T14:56:20.168Z,11.64
2023-03-21T14:58:48.086Z,11.71
2023-03-21T15:01:21.920Z,11.77
2023-03-21T15:03:52.170Z,11.79
2023-03-21T15:06:19.884Z,11.80
2023-03-21T15:09:03.092Z,11.82
2023-03-21T15:11:33.022Z,11.83
2023-03-21T15:14:05.088Z,11.83
2023-03-21T15:16:32.598Z,11.83
2023-03-21T15:19:02.221Z,11.77
2023-03-21T15:21:38.139Z,11.78
2023-03-21T15:24:14.116Z,11.80
2023-03-21T15:26:45.919Z,11.85
2023-03-21T15:29:15.045Z,11.89
2023-03-21T15:31:43.353Z,11.89
2023-03-21T15:34:27.575Z,11.87
2023-03-21T15:37:07.674Z,11.83
2023-03-21T15:39:36.678Z,11.82
2023-03-21T15:42:21.232Z,11.81
2023-03-21T15:44:52.154Z,11.78
2023-03-21T15:47:43.670Z,11.76
2023-03-21T15:50:29.711Z,11.71
2023-03-21T15:53:00.770Z,11.69
2023-03-21T15:55:42.640Z,11.62
2023-03-21T15:58:21.293Z,11.59
2023-03-21T16:00:55.518Z,11.52
2023-03-21T16:03:26.497Z,11.48
2023-03-21T16:06:10.230Z,11.44
2023-03-21T16:09:03.695Z,11.41
2023-03-21T16:11:49.167Z,11.37
2023-03-21T16:14:21.069Z,11.36
2023-03-21T16:16:48.855Z,11.35
2023-03-21T16:19:17.591Z,11.37
2023-03-21T16:21:44.872Z,11.34
2023-03-21T16:24:13.693Z,11.32
2023-03-21T16:26:48.077Z,11.29
2023-03-21T16:29:16.780Z,11.28
2023-03-21T16:31:44.472Z,11.23
2023-03-21T16:34:12.639Z,11.20
2023-03-21T16:36:41.494Z,11.17
2023-03-21T16:39:24.447Z,11.17
2023-03-21T16:41:52.290Z,11.13
2023-03-21T16:44:20.179Z,11.09
2023-03-21T16:46:47.957Z,11.07
2023-03-21T16:49:25.829Z,11.04
2023-03-21T16:51:56.117Z,11.02
2023-03-21T16:54:24.039Z,10.98
2023-03-21T16:56:54.335Z,10.93
2023-03-21T16:59:22.246Z,10.94
2023-03-21T17:01:49.950Z,10.91
2023-03-21T17:04:18.632Z,10.89
2023-03-21T17:06:49.548Z,10.87
2023-03-21T17:09:21.156Z,10.84
2023-03-21T17:11:49.576Z,10.78
2023-03-21T17:14:18.642Z,10.74
2023-03-21T17:16:46.386Z,10.65
2023-03-21T17:19:21.992Z,10.57
2023-03-21T17:21:49.322Z,10.48
2023-03-21T17:24:17.556Z,10.43
2023-03-21T17:26:44.969Z,10.37
2023-03-21T17:29:15.695Z,10.26
2023-03-21T17:31:47.289Z,10.19
2023-03-21T17:34:15.682Z,10.12
2023-03-21T17:36:46.723Z,10.07
2023-03-21T17:39:25.998Z,10.04
2023-03-21T17:41:54.108Z,9.99
2023-03-21T17:44:21.864Z,9.98
2023-03-21T17:46:51.567Z,9.95
2023-03-21T17:49:21.257Z,9.92
2023-03-21T17:51:48.849Z,9.90
2023-03-21T17:54:17.574Z,9.89
2023-03-21T17:56:44.866Z,9.86
2023-03-21T17:59:13.963Z,9.85
2023-03-21T18:01:44.953Z,9.85
2023-03-21T18:04:12.270Z,9.83
2023-03-21T18:06:40.022Z,9.82
2023-03-21T18:09:12.148Z,9.83
2023-03-21T18:11:40.814Z,9.79
2023-03-21T18:14:17.566Z,9.79
2023-03-21T18:16:47.839Z,9.75
2023-03-21T18:19:17.924Z,9.75
2023-03-21T18:21:46.116Z,9.73
2023-03-21T18:24:14.408Z,9.73
2023-03-21T18:26:43.344Z,9.71
2023-03-21T18:32:07.805Z,9.72
2023-03-21T18:34:38.804Z,9.70
2023-03-21T18:37:08.186Z,9.70
2023-03-21T18:39:37.291Z,9.69
2023-03-21T18:42:06.140Z,9.67
2023-03-21T18:44:37.590Z,9.67
2023-03-21T18:47:08.554Z,9.65
2023-03-21T18:50:10.436Z,9.63
2023-03-21T18:52:23.849Z,9.61
2023-03-21T18:54:51.257Z,9.59
2023-03-21T18:57:37.431Z,9.59
2023-03-21T19:00:13.838Z,9.59
2023-03-21T19:02:48.090Z,9.59
2023-03-21T19:05:19.057Z,9.59
2023-03-21T19:07:48.068Z,9.58
2023-03-21T19:10:19.928Z,9.60
2023-03-21T19:12:49.625Z,9.61
2023-03-21T19:15:19.861Z,9.61
2023-03-21T19:20:36.505Z,9.56
2023-03-21T19:23:04.258Z,9.53
2023-03-21T19:25:32.562Z,9.51
2023-03-21T19:27:59.966Z,9.52
2023-03-21T19:30:27.979Z,9.50
2023-03-21T19:32:55.979Z,9.50
2023-03-21T19:35:23.293Z,9.51
2023-03-21T19:37:50.833Z,9.52
2023-03-21T19:40:19.886Z,9.55
2023-03-21T19:42:47.503Z,9.55
2023-03-21T19:45:14.824Z,9.56
2023-03-21T19:47:42.221Z,9.56
2023-03-21T19:52:57.602Z,9.57
2023-03-21T19:55:25.866Z,9.56
2023-03-21T19:57:53.808Z,9.56
2023-03-21T20:00:21.830Z,9.56
2023-03-21T20:02:49.307Z,9.55
2023-03-21T20:05:20.733Z,9.51
2023-03-21T20:07:48.275Z,9.49
2023-03-21T20:10:15.772Z,9.47
2023-03-21T20:12:43.098Z,9.46
2023-03-21T20:15:17.624Z,9.44
2023-03-21T20:17:47.639Z,9.42
2023-03-21T20:20:17.990Z,9.40
2023-03-21T20:25:40.751Z,9.34
2023-03-21T20:28:20.390Z,9.33
2023-03-21T20:30:58.486Z,9.31
2023-03-21T20:33:27.154Z,9.31
2023-03-21T20:38:51.462Z,9.25
2023-03-21T20:41:19.036Z,9.23
2023-03-21T20:46:36.414Z,9.17
2023-03-21T20:49:06.758Z,9.13
2023-03-21T20:54:21.504Z,9.04
2023-03-21T20:56:48.984Z,9.01
2023-03-21T20:59:24.949Z,8.99
2023-03-21T21:01:57.308Z,8.97
2023-03-21T21:04:48.228Z,8.97
2023-03-21T21:07:21.151Z,8.95
2023-03-21T21:09:49.454Z,8.94
2023-03-21T21:12:19.652Z,8.93
2023-03-21T21:14:48.322Z,8.90
2023-03-21T21:17:42.881Z,8.90
2023-03-21T21:20:17.078Z,8.87
2023-03-21T21:22:58.562Z,8.84
2023-03-21T21:25:27.427Z,8.81
2023-03-21T21:27:55.435Z,8.80
2023-03-21T21:30:22.875Z,8.77
2023-03-21T21:32:50.518Z,8.74
2023-03-21T21:35:19.614Z,8.73
2023-03-21T21:37:47.048Z,8.72
2023-03-21T21:40:17.048Z,8.69
2023-03-21T21:42:44.916Z,8.66
2023-03-21T21:45:13.489Z,8.64
2023-03-21T21:47:40.993Z,8.62
2023-03-21T21:50:09.146Z,8.59
2023-03-21T21:52:37.542Z,8.57
2023-03-21T21:55:06.560Z,8.54
2023-03-21T21:57:34.658Z,8.51
2023-03-21T22:00:06.538Z,8.50
2023-03-21T22:02:41.511Z,8.47
2023-03-21T22:05:09.549Z,8.44
2023-03-21T22:07:38.204Z,8.41
2023-03-21T22:10:06.871Z,8.38
2023-03-21T22:12:34.595Z,8.38
2023-03-21T22:15:03.986Z,8.35
2023-03-21T22:17:31.342Z,8.33
2023-03-21T22:20:05.624Z,8.33
2023-03-21T22:22:34.820Z,8.32
2023-03-21T22:25:07.416Z,8.33
2023-03-21T22:27:35.024Z,8.34
2023-03-21T22:30:07.464Z,8.35
2023-03-21T22:32:36.699Z,8.33
2023-03-21T22:35:05.893Z,8.33
2023-03-21T22:37:34.860Z,8.33
2023-03-21T22:40:05.524Z,8.33
2023-03-21T22:42:33.143Z,8.32
2023-03-21T22:45:02.842Z,8.33
2023-03-21T22:47:30.439Z,8.33
2023-03-21T22:49:57.974Z,8.35
2023-03-21T22:52:25.434Z,8.36
2023-03-21T22:54:52.946Z,8.38
2023-03-21T22:57:20.721Z,8.40
2023-03-21T22:59:48.587Z,8.42
2023-03-21T23:02:16.189Z,8.45
2023-03-21T23:04:43.596Z,8.47
2023-03-21T23:07:10.888Z,8.49
2023-03-21T23:09:38.486Z,8.52
2023-03-21T23:12:06.042Z,8.54
2023-03-21T23:14:33.396Z,8.55
2023-03-21T23:17:03.168Z,8.56
2023-03-21T23:19:31.328Z,8.58
2023-03-21T23:21:59.013Z,8.61
2023-03-21T23:24:26.642Z,8.61
2023-03-21T23:26:53.988Z,8.63
2023-03-21T23:29:21.401Z,8.65
2023-03-21T23:31:48.730Z,8.66
2023-03-21T23:34:16.198Z,8.69
2023-03-21T23:36:43.523Z,8.70
2023-03-21T23:39:11.016Z,8.71
2023-03-21T23:41:38.387Z,8.74
2023-03-21T23:44:06.343Z,8.76
2023-03-21T23:46:33.665Z,8.78
2023-03-21T23:49:03.618Z,8.81
2023-03-21T23:51:30.985Z,8.82
2023-03-21T23:53:59.715Z,8.83
2023-03-21T23:56:28.316Z,8.85
2023-03-21T23:59:00.538Z,8.87
